Terminal Aerodrome Forecast
Issued by NWS Charleston, WV

Current Version | Previous Version | Graphics & Text | Print | Product List | Glossary On
Versions: 1 2 3 4 5 6 7 8 9 10 11 12 13 14 15 16 17 18 19 20 21 22 23 24
000
FTUS41 KRLX 241700
TAFBKW
TAF
KBKW 241740Z 2418/2518 36006KT P6SM BKN008
     FM241900 33006KT 5SM SHRA BR VCTS BKN008CB
     FM242000 34006KT P6SM BKN008
     FM250000 34004KT 6SM BR BKN035
     FM250100 34004KT 6SM BR BKN025
     FM250300 VRB03KT P6SM SCT008=

USA.gov is the U.S. government's official web portal to all federal, state and local government web resources and services.